createdAt,value
2024-05-09T00:03:11.015Z,102916.44
2024-05-09T00:08:14.367Z,102911.34
2024-05-09T00:13:16.622Z,102910.59
2024-05-09T00:18:18.912Z,102910.81
2024-05-09T00:23:21.230Z,102908.22
2024-05-09T00:28:23.420Z,102906.69
2024-05-09T00:33:25.840Z,102899.59
2024-05-09T00:38:28.407Z,102888.94
2024-05-09T00:43:32.614Z,102889.88
2024-05-09T00:48:35.522Z,102877.94
2024-05-09T00:53:38.033Z,102887.97
2024-05-09T00:58:40.282Z,102882.00
2024-05-09T01:03:42.632Z,102883.84
2024-05-09T01:08:45.004Z,102880.38
2024-05-09T01:13:47.178Z,102880.81
2024-05-09T01:18:49.430Z,102871.38
2024-05-09T01:23:51.671Z,102876.03
2024-05-09T01:28:53.916Z,102863.66
2024-05-09T01:33:56.427Z,102862.34
2024-05-09T01:38:58.865Z,102863.19
2024-05-09T01:44:01.108Z,102855.38
2024-05-09T01:49:04.543Z,102853.09
2024-05-09T01:54:06.855Z,102863.34
2024-05-09T01:59:10.497Z,102861.06
2024-05-09T02:04:13.011Z,102856.69
2024-05-09T02:09:16.203Z,102862.28
2024-05-09T02:14:20.181Z,102860.75
2024-05-09T02:19:22.583Z,102853.78
2024-05-09T02:24:24.928Z,102853.91
2024-05-09T02:29:27.209Z,102851.50
2024-05-09T02:34:29.460Z,102858.94
2024-05-09T02:39:31.641Z,102855.41
2024-05-09T02:44:33.845Z,102866.56
2024-05-09T02:49:36.255Z,102856.84
2024-05-09T02:54:38.534Z,102857.84
2024-05-09T02:59:40.688Z,102851.41
2024-05-09T03:04:43.474Z,102846.16
2024-05-09T03:09:48.636Z,102839.97
2024-05-09T03:14:51.159Z,102836.72
2024-05-09T03:19:53.365Z,102836.16
2024-05-09T03:24:55.525Z,102844.53
2024-05-09T03:29:57.686Z,102841.44
2024-05-09T03:34:59.842Z,102843.53
2024-05-09T03:40:02.924Z,102853.66
2024-05-09T03:45:05.256Z,102843.63
2024-05-09T03:50:12.214Z,102852.03
2024-05-09T03:55:20.153Z,102844.72
2024-05-09T04:00:30.943Z,102848.19
2024-05-09T04:05:41.398Z,102844.72
2024-05-09T04:10:44.767Z,102851.91
2024-05-09T04:15:47.024Z,102849.38
2024-05-09T04:20:49.325Z,102851.25
2024-05-09T04:25:51.534Z,102854.75
2024-05-09T04:30:53.708Z,102842.69
2024-05-09T04:35:55.874Z,102841.88
2024-05-09T04:40:58.176Z,102845.28
2024-05-09T04:46:00.392Z,102840.59
2024-05-09T04:51:03.358Z,102847.47
2024-05-09T04:56:06.810Z,102845.22
2024-05-09T05:01:09.029Z,102842.91
2024-05-09T05:06:11.245Z,102837.00
2024-05-09T05:11:13.708Z,102844.66
2024-05-09T05:16:16.703Z,102846.72
2024-05-09T05:21:19.174Z,102851.91
2024-05-09T05:26:21.467Z,102850.78
2024-05-09T05:31:23.686Z,102856.00
2024-05-09T05:36:25.936Z,102858.84
2024-05-09T05:41:28.136Z,102861.47
2024-05-09T05:46:30.340Z,102855.22
2024-05-09T05:51:32.486Z,102858.03
2024-05-09T05:56:34.735Z,102863.13
2024-05-09T06:01:36.979Z,102852.44
2024-05-09T06:06:39.190Z,102858.53
2024-05-09T06:11:42.531Z,102858.38
2024-05-09T06:16:44.786Z,102854.59
2024-05-09T06:21:47.014Z,102854.63
2024-05-09T06:26:50.173Z,102852.63
2024-05-09T06:31:52.499Z,102839.38
2024-05-09T06:36:54.666Z,102840.38
2024-05-09T06:41:56.853Z,102847.59
2024-05-09T06:47:00.081Z,102857.50
2024-05-09T06:52:02.339Z,102854.84
2024-05-09T06:57:05.267Z,102852.81
2024-05-09T07:02:07.730Z,102853.69
2024-05-09T07:07:09.940Z,102850.97
2024-05-09T07:12:12.314Z,102842.75
2024-05-09T07:17:14.713Z,102840.16
2024-05-09T07:22:17.121Z,102838.69
2024-05-09T07:27:19.281Z,102839.41
2024-05-09T07:32:21.686Z,102840.66
2024-05-09T07:37:23.959Z,102845.66
2024-05-09T07:42:26.113Z,102839.63
2024-05-09T07:48:57.184Z,102842.75
2024-05-09T07:53:35.353Z,102855.41
2024-05-09T07:58:13.174Z,102843.47
2024-05-09T08:03:15.384Z,102840.88
2024-05-09T08:08:17.674Z,102838.78
2024-05-09T08:13:19.885Z,102834.81
2024-05-09T08:18:22.189Z,102836.31
2024-05-09T08:23:24.415Z,102835.50
2024-05-09T08:28:26.605Z,102837.69
2024-05-09T08:33:28.932Z,102837.94
2024-05-09T08:38:31.249Z,102834.97
2024-05-09T08:43:33.435Z,102836.22
2024-05-09T08:48:39.413Z,102826.28
2024-05-09T08:53:41.673Z,102828.25
2024-05-09T08:58:45.300Z,102834.16
2024-05-09T09:03:49.094Z,102833.38
2024-05-09T09:08:51.838Z,102830.53
2024-05-09T09:13:53.988Z,102820.50
2024-05-09T09:18:57.738Z,102836.28
2024-05-09T09:24:00.138Z,102828.13
2024-05-09T09:29:02.790Z,102823.91
2024-05-09T09:34:09.720Z,102820.31
2024-05-09T09:39:16.331Z,102813.31
2024-05-09T09:44:20.088Z,102808.75
2024-05-09T09:49:24.390Z,102807.75
2024-05-09T09:54:29.101Z,102807.06
2024-05-09T09:59:35.967Z,102814.09
2024-05-09T10:04:38.198Z,102804.69
2024-05-09T10:09:40.526Z,102806.28
2024-05-09T10:14:49.783Z,102799.28
2024-05-09T10:19:52.162Z,102797.72
2024-05-09T10:24:55.168Z,102799.47
2024-05-09T10:29:59.179Z,102791.31
2024-05-09T10:35:05.719Z,102800.03
2024-05-09T10:40:14.234Z,102787.41
2024-05-09T10:45:22.055Z,102797.91
2024-05-09T10:50:28.761Z,102793.25
2024-05-09T10:55:34.160Z,102789.81
2024-05-09T11:00:37.676Z,102794.63
2024-05-09T11:05:43.118Z,102801.38
2024-05-09T11:10:46.147Z,102783.03
2024-05-09T11:15:48.431Z,102775.97
2024-05-09T11:20:53.732Z,102771.38
2024-05-09T11:25:57.743Z,102769.75
2024-05-09T11:31:10.755Z,102762.84
2024-05-09T11:36:13.646Z,102758.00
2024-05-09T11:41:19.096Z,102752.84
2024-05-09T11:46:21.551Z,102739.75
2024-05-09T11:51:23.828Z,102733.19
2024-05-09T11:56:26.021Z,102733.53
2024-05-09T12:01:28.422Z,102731.66
2024-05-09T12:06:30.869Z,102727.28
2024-05-09T12:11:33.193Z,102727.63
2024-05-09T12:16:35.744Z,102725.19
2024-05-09T12:21:37.996Z,102716.00
2024-05-09T12:26:40.205Z,102726.41
2024-05-09T12:31:42.381Z,102717.53
2024-05-09T12:36:44.548Z,102718.22
2024-05-09T12:41:46.691Z,102713.91
2024-05-09T12:46:48.995Z,102698.28
2024-05-09T12:51:51.182Z,102710.53
2024-05-09T12:56:53.427Z,102699.31
2024-05-09T13:01:57.224Z,102700.19
2024-05-09T13:07:00.245Z,102700.38
2024-05-09T13:12:02.380Z,102701.28
2024-05-09T13:17:05.258Z,102708.22
2024-05-09T13:22:07.466Z,102707.81
2024-05-09T13:27:10.078Z,102704.97
2024-05-09T13:32:12.264Z,102704.31
2024-05-09T13:37:14.492Z,102704.75
2024-05-09T13:42:17.538Z,102708.56
2024-05-09T13:47:20.327Z,102706.47
2024-05-09T13:52:22.551Z,102702.44
2024-05-09T13:57:24.743Z,102701.69
2024-05-09T14:02:26.962Z,102687.88
2024-05-09T14:07:29.206Z,102686.34
2024-05-09T14:12:31.372Z,102680.47
2024-05-09T14:17:33.751Z,102678.72
2024-05-09T14:22:36.976Z,102663.75
2024-05-09T14:27:39.542Z,102671.72
2024-05-09T14:32:41.890Z,102663.81
2024-05-09T14:37:44.130Z,102661.16
2024-05-09T14:42:46.386Z,102652.31
2024-05-09T14:47:48.716Z,102644.59
2024-05-09T14:52:50.939Z,102641.38
2024-05-09T14:57:53.213Z,102635.66
2024-05-09T15:02:55.662Z,102640.44
2024-05-09T15:07:58.743Z,102638.97
2024-05-09T15:13:00.996Z,102636.56
2024-05-09T15:18:05.407Z,102628.19
2024-05-09T15:23:07.874Z,102620.22
2024-05-09T15:28:10.211Z,102622.09
2024-05-09T15:33:12.529Z,102600.19
2024-05-09T15:38:15.948Z,102600.31
2024-05-09T15:43:18.228Z,102602.25
2024-05-09T15:48:20.518Z,102592.28
2024-05-09T15:53:22.775Z,102588.25
2024-05-09T15:58:25.154Z,102591.88
2024-05-09T16:03:28.328Z,102591.19
2024-05-09T16:08:30.615Z,102588.59
2024-05-09T16:13:32.873Z,102572.75
2024-05-09T16:18:35.252Z,102582.06
2024-05-09T16:23:40.046Z,102574.16
2024-05-09T16:28:42.392Z,102576.59
2024-05-09T16:33:44.795Z,102579.34
2024-05-09T16:38:47.033Z,102572.44
2024-05-09T16:43:49.192Z,102555.06
2024-05-09T16:48:51.521Z,102554.09
2024-05-09T16:53:53.786Z,102556.72
2024-05-09T16:58:56.087Z,102560.44
2024-05-09T17:03:58.456Z,102556.03
2024-05-09T17:09:08.385Z,102557.78
2024-05-09T17:14:13.910Z,102553.66
2024-05-09T17:19:17.120Z,102548.31
2024-05-09T17:24:19.454Z,102541.25
2024-05-09T17:29:21.710Z,102541.84
2024-05-09T17:34:25.008Z,102534.09
2024-05-09T17:39:27.318Z,102532.88
2024-05-09T17:44:29.482Z,102539.03
2024-05-09T17:49:31.845Z,102537.34
2024-05-09T17:54:34.250Z,102542.16
2024-05-09T17:59:36.474Z,102542.16
2024-05-09T18:04:38.741Z,102542.34
2024-05-09T18:09:41.048Z,102540.44
2024-05-09T18:14:43.710Z,102541.09
2024-05-09T18:19:46.015Z,102534.88
2024-05-09T18:24:48.281Z,102530.19
2024-05-09T18:29:50.849Z,102526.16
2024-05-09T18:34:53.168Z,102534.78
2024-05-09T18:39:55.418Z,102521.09
2024-05-09T18:44:57.638Z,102533.75
2024-05-09T18:50:00.575Z,102526.47
2024-05-09T18:55:02.918Z,102531.06
2024-05-09T19:00:05.867Z,102530.66
2024-05-09T19:05:09.316Z,102539.13
2024-05-09T19:10:22.042Z,102528.53
2024-05-09T19:15:27.797Z,102536.25
2024-05-09T19:20:34.463Z,102534.22
2024-05-09T19:25:38.254Z,102532.84
2024-05-09T19:30:42.381Z,102542.00
2024-05-09T19:35:45.259Z,102546.81
2024-05-09T19:40:47.646Z,102558.56
2024-05-09T19:45:50.010Z,102552.53
2024-05-09T19:50:53.334Z,102547.09
2024-05-09T19:55:56.286Z,102559.53
2024-05-09T20:00:58.526Z,102562.03
2024-05-09T20:06:00.724Z,102547.16
2024-05-09T20:11:02.882Z,102554.09
2024-05-09T20:16:05.652Z,102551.94
2024-05-09T20:21:08.001Z,102546.72
2024-05-09T20:26:10.660Z,102554.97
2024-05-09T20:31:21.258Z,102571.59
2024-05-09T20:36:23.558Z,102563.38
2024-05-09T20:41:25.705Z,102570.72
2024-05-09T20:46:28.312Z,102572.03
2024-05-09T20:51:30.640Z,102568.97
2024-05-09T20:56:32.778Z,102566.22
2024-05-09T21:01:35.028Z,102571.56
2024-05-09T21:06:37.327Z,102557.41
2024-05-09T21:11:39.612Z,102558.72
2024-05-09T21:16:41.945Z,102552.91
2024-05-09T21:21:44.240Z,102552.03
2024-05-09T21:26:46.454Z,102542.66
2024-05-09T21:31:48.631Z,102553.28
2024-05-09T21:36:50.854Z,102545.91
2024-05-09T21:41:53.651Z,102549.19
2024-05-09T21:46:56.237Z,102557.81
2024-05-09T21:51:58.459Z,102557.34
2024-05-09T21:57:00.686Z,102568.69
2024-05-09T22:02:03.340Z,102555.56
2024-05-09T22:07:06.574Z,102553.09
2024-05-09T22:12:08.786Z,102551.38
2024-05-09T22:17:11.114Z,102543.97
2024-05-09T22:22:13.408Z,102556.78
2024-05-09T22:27:15.686Z,102558.34
2024-05-09T22:32:18.140Z,102562.50
2024-05-09T22:37:20.461Z,102563.78
2024-05-09T22:42:22.627Z,102569.25
2024-05-09T22:47:24.974Z,102553.94
2024-05-09T22:52:27.194Z,102557.09
2024-05-09T22:57:29.534Z,102552.88
2024-05-09T23:02:31.806Z,102555.03
2024-05-09T23:07:33.988Z,102545.91
2024-05-09T23:12:36.190Z,102550.47
2024-05-09T23:17:38.478Z,102553.63
2024-05-09T23:22:40.714Z,102545.09
2024-05-09T23:27:42.946Z,102547.34
2024-05-09T23:32:45.309Z,102542.44
2024-05-09T23:37:47.556Z,102541.81
2024-05-09T23:42:49.797Z,102540.94
2024-05-09T23:47:52.230Z,102537.50
2024-05-09T23:52:54.508Z,102540.34
2024-05-09T23:57:57.102Z,102535.41
